METAR Data
IDs: Format: Raw Decoded Include TAF

Data at: 0112 UTC 24 May 2019

METAR for:KHLX (Hillsville/Twin Cnty, VA, US)
Text:KHLX 240055Z AUTO 26004KT 10SM CLR 23/14 A3021 RMK AO2 T02340143
Temperature: 23.4°C ( 74°F)
Dewpoint: 14.3°C ( 58°F) [RH = 57%]
Pressure (altimeter):30.21 inches Hg (1023.1 mb)
Winds:from the W (260 degrees) at 5 MPH (4 knots; 2.1 m/s)
Visibility:10 or more sm (16+ km)
Ceiling:at least 12,000 feet AGL
Clouds:sky clear below 12,000 feet AGL
QC Flag:automated observation with no human augmentation